sensor_id;sensor_type;location;lat;lon;timestamp;temperature;humidity
10129;DHT22;5104;50.720;7.044;2023-05-07T00:01:14;13.80;99.90
10129;DHT22;5104;50.720;7.044;2023-05-07T00:03:42;13.70;99.90
10129;DHT22;5104;50.720;7.044;2023-05-07T00:06:09;13.70;99.90
10129;DHT22;5104;50.720;7.044;2023-05-07T00:08:38;13.70;99.90
10129;DHT22;5104;50.720;7.044;2023-05-07T00:11:05;13.70;99.90
10129;DHT22;5104;50.720;7.044;2023-05-07T00:13:35;13.70;99.90
10129;DHT22;5104;50.720;7.044;2023-05-07T00:16:04;13.70;99.90
10129;DHT22;5104;50.720;7.044;2023-05-07T00:18:31;13.70;99.90
10129;DHT22;5104;50.720;7.044;2023-05-07T00:20:59;13.70;99.90
10129;DHT22;5104;50.720;7.044;2023-05-07T00:23:26;13.70;99.90
10129;DHT22;5104;50.720;7.044;2023-05-07T00:25:53;13.60;99.90
10129;DHT22;5104;50.720;7.044;2023-05-07T00:28:23;13.50;99.90
10129;DHT22;5104;50.720;7.044;2023-05-07T00:30:50;13.50;99.90
10129;DHT22;5104;50.720;7.044;2023-05-07T00:33:19;13.50;99.90
10129;DHT22;5104;50.720;7.044;2023-05-07T00:35:46;13.50;99.90
10129;DHT22;5104;50.720;7.044;2023-05-07T00:38:13;13.50;99.90
10129;DHT22;5104;50.720;7.044;2023-05-07T00:40:40;13.50;99.90
10129;DHT22;5104;50.720;7.044;2023-05-07T00:43:07;13.50;99.90
10129;DHT22;5104;50.720;7.044;2023-05-07T00:45:34;13.60;99.90
10129;DHT22;5104;50.720;7.044;2023-05-07T00:48:02;13.50;99.90
10129;DHT22;5104;50.720;7.044;2023-05-07T00:50:32;13.60;99.90
10129;DHT22;5104;50.720;7.044;2023-05-07T00:53:00;13.60;99.90
10129;DHT22;5104;50.720;7.044;2023-05-07T00:55:27;13.60;99.90
10129;DHT22;5104;50.720;7.044;2023-05-07T00:57:54;13.60;99.90
10129;DHT22;5104;50.720;7.044;2023-05-07T01:00:21;13.60;99.90
10129;DHT22;5104;50.720;7.044;2023-05-07T01:02:48;13.70;99.90
10129;DHT22;5104;50.720;7.044;2023-05-07T01:05:17;13.60;99.90
10129;DHT22;5104;50.720;7.044;2023-05-07T01:07:46;13.60;99.90
10129;DHT22;5104;50.720;7.044;2023-05-07T01:10:14;13.60;99.90
10129;DHT22;5104;50.720;7.044;2023-05-07T01:12:42;13.70;99.90
10129;DHT22;5104;50.720;7.044;2023-05-07T01:15:10;13.70;99.90
10129;DHT22;5104;50.720;7.044;2023-05-07T01:17:39;13.70;99.90
10129;DHT22;5104;50.720;7.044;2023-05-07T01:20:07;13.70;99.90
10129;DHT22;5104;50.720;7.044;2023-05-07T01:22:37;13.70;99.90
10129;DHT22;5104;50.720;7.044;2023-05-07T01:25:06;13.70;99.90
10129;DHT22;5104;50.720;7.044;2023-05-07T01:27:33;13.80;99.90
10129;DHT22;5104;50.720;7.044;2023-05-07T01:30:01;13.70;99.90
10129;DHT22;5104;50.720;7.044;2023-05-07T01:32:33;13.70;99.90
10129;DHT22;5104;50.720;7.044;2023-05-07T01:35:03;13.70;99.90
10129;DHT22;5104;50.720;7.044;2023-05-07T01:37:33;13.70;99.90
10129;DHT22;5104;50.720;7.044;2023-05-07T01:40:02;13.70;99.90
10129;DHT22;5104;50.720;7.044;2023-05-07T01:42:31;13.70;99.90
10129;DHT22;5104;50.720;7.044;2023-05-07T01:44:58;13.60;99.90
10129;DHT22;5104;50.720;7.044;2023-05-07T01:47:25;13.60;99.90
10129;DHT22;5104;50.720;7.044;2023-05-07T01:49:52;13.60;99.90
10129;DHT22;5104;50.720;7.044;2023-05-07T01:52:19;13.60;99.90
10129;DHT22;5104;50.720;7.044;2023-05-07T01:54:46;13.60;99.90
10129;DHT22;5104;50.720;7.044;2023-05-07T01:57:15;13.60;99.90
10129;DHT22;5104;50.720;7.044;2023-05-07T01:59:42;13.60;99.90
10129;DHT22;5104;50.720;7.044;2023-05-07T02:02:08;13.60;99.90
10129;DHT22;5104;50.720;7.044;2023-05-07T02:04:35;13.60;99.90
10129;DHT22;5104;50.720;7.044;2023-05-07T02:07:02;13.60;99.90
10129;DHT22;5104;50.720;7.044;2023-05-07T02:09:29;13.60;99.90
10129;DHT22;5104;50.720;7.044;2023-05-07T02:11:56;13.60;99.90
10129;DHT22;5104;50.720;7.044;2023-05-07T02:14:25;13.60;99.90
10129;DHT22;5104;50.720;7.044;2023-05-07T02:16:52;13.60;99.90
10129;DHT22;5104;50.720;7.044;2023-05-07T02:19:18;13.60;99.90
10129;DHT22;5104;50.720;7.044;2023-05-07T02:21:46;13.60;99.90
10129;DHT22;5104;50.720;7.044;2023-05-07T02:24:16;13.60;99.90
10129;DHT22;5104;50.720;7.044;2023-05-07T02:26:43;13.60;99.90
10129;DHT22;5104;50.720;7.044;2023-05-07T02:29:10;13.50;99.90
10129;DHT22;5104;50.720;7.044;2023-05-07T02:31:38;13.50;99.90
10129;DHT22;5104;50.720;7.044;2023-05-07T02:34:05;13.50;99.90
10129;DHT22;5104;50.720;7.044;2023-05-07T02:36:32;13.50;99.90
10129;DHT22;5104;50.720;7.044;2023-05-07T02:38:59;13.40;99.90
10129;DHT22;5104;50.720;7.044;2023-05-07T02:41:26;13.40;99.90
10129;DHT22;5104;50.720;7.044;2023-05-07T02:43:53;13.40;99.90
10129;DHT22;5104;50.720;7.044;2023-05-07T02:46:20;13.40;99.90
10129;DHT22;5104;50.720;7.044;2023-05-07T02:48:51;13.30;99.90
10129;DHT22;5104;50.720;7.044;2023-05-07T02:51:20;13.30;99.90
10129;DHT22;5104;50.720;7.044;2023-05-07T02:53:47;13.30;99.90
10129;DHT22;5104;50.720;7.044;2023-05-07T02:56:14;13.30;99.90
10129;DHT22;5104;50.720;7.044;2023-05-07T02:58:47;13.20;99.90
10129;DHT22;5104;50.720;7.044;2023-05-07T03:01:16;13.20;99.90
10129;DHT22;5104;50.720;7.044;2023-05-07T03:03:44;13.20;99.90
10129;DHT22;5104;50.720;7.044;2023-05-07T03:06:12;13.20;99.90
10129;DHT22;5104;50.720;7.044;2023-05-07T03:08:39;13.20;99.90
10129;DHT22;5104;50.720;7.044;2023-05-07T03:11:06;13.20;99.90
10129;DHT22;5104;50.720;7.044;2023-05-07T03:13:33;13.20;99.90
10129;DHT22;5104;50.720;7.044;2023-05-07T03:16:00;13.20;99.90
10129;DHT22;5104;50.720;7.044;2023-05-07T03:18:26;13.20;99.90
10129;DHT22;5104;50.720;7.044;2023-05-07T03:20:53;13.20;99.90
10129;DHT22;5104;50.720;7.044;2023-05-07T03:23:22;13.20;99.90
10129;DHT22;5104;50.720;7.044;2023-05-07T03:25:48;13.20;99.90
10129;DHT22;5104;50.720;7.044;2023-05-07T03:28:15;13.20;99.90
10129;DHT22;5104;50.720;7.044;2023-05-07T03:30:42;13.20;99.90
10129;DHT22;5104;50.720;7.044;2023-05-07T03:33:09;13.10;99.90
10129;DHT22;5104;50.720;7.044;2023-05-07T03:35:36;13.10;99.90
10129;DHT22;5104;50.720;7.044;2023-05-07T03:38:06;13.10;99.90
10129;DHT22;5104;50.720;7.044;2023-05-07T03:40:34;13.10;99.90
10129;DHT22;5104;50.720;7.044;2023-05-07T03:43:01;13.10;99.90
10129;DHT22;5104;50.720;7.044;2023-05-07T03:45:28;13.00;99.90
10129;DHT22;5104;50.720;7.044;2023-05-07T03:47:55;13.10;99.90
10129;DHT22;5104;50.720;7.044;2023-05-07T03:50:21;13.10;99.90
10129;DHT22;5104;50.720;7.044;2023-05-07T03:52:48;13.10;99.90
10129;DHT22;5104;50.720;7.044;2023-05-07T03:55:15;13.10;99.90
10129;DHT22;5104;50.720;7.044;2023-05-07T03:57:43;13.10;99.90
10129;DHT22;5104;50.720;7.044;2023-05-07T04:00:15;13.10;99.90
10129;DHT22;5104;50.720;7.044;2023-05-07T04:02:41;13.20;99.90
10129;DHT22;5104;50.720;7.044;2023-05-07T04:05:08;13.20;99.90
10129;DHT22;5104;50.720;7.044;2023-05-07T04:07:38;13.20;99.90
10129;DHT22;5104;50.720;7.044;2023-05-07T04:10:05;13.10;99.90
10129;DHT22;5104;50.720;7.044;2023-05-07T04:12:32;13.10;99.90
10129;DHT22;5104;50.720;7.044;2023-05-07T04:15:01;13.20;99.90
10129;DHT22;5104;50.720;7.044;2023-05-07T04:17:28;13.20;99.90
10129;DHT22;5104;50.720;7.044;2023-05-07T04:19:55;13.20;99.90
10129;DHT22;5104;50.720;7.044;2023-05-07T04:22:22;13.30;99.90
10129;DHT22;5104;50.720;7.044;2023-05-07T04:24:48;13.30;99.90
10129;DHT22;5104;50.720;7.044;2023-05-07T04:27:15;13.40;99.90
10129;DHT22;5104;50.720;7.044;2023-05-07T04:29:42;13.40;99.90
10129;DHT22;5104;50.720;7.044;2023-05-07T04:32:14;13.40;99.90
10129;DHT22;5104;50.720;7.044;2023-05-07T04:34:40;13.50;99.90
10129;DHT22;5104;50.720;7.044;2023-05-07T04:37:08;13.50;99.90
10129;DHT22;5104;50.720;7.044;2023-05-07T04:39:35;13.50;99.90
10129;DHT22;5104;50.720;7.044;2023-05-07T04:42:02;13.50;99.90
10129;DHT22;5104;50.720;7.044;2023-05-07T04:44:29;13.50;99.90
10129;DHT22;5104;50.720;7.044;2023-05-07T04:46:56;13.50;99.90
10129;DHT22;5104;50.720;7.044;2023-05-07T04:49:25;13.50;99.90
10129;DHT22;5104;50.720;7.044;2023-05-07T04:51:51;13.60;99.90
10129;DHT22;5104;50.720;7.044;2023-05-07T04:54:18;13.70;99.90
10129;DHT22;5104;50.720;7.044;2023-05-07T04:56:45;13.70;99.90
10129;DHT22;5104;50.720;7.044;2023-05-07T04:59:12;13.70;99.90
10129;DHT22;5104;50.720;7.044;2023-05-07T05:01:39;13.80;99.90
10129;DHT22;5104;50.720;7.044;2023-05-07T05:04:07;13.90;99.90
10129;DHT22;5104;50.720;7.044;2023-05-07T05:06:35;13.90;99.90
10129;DHT22;5104;50.720;7.044;2023-05-07T05:09:02;14.10;99.90
10129;DHT22;5104;50.720;7.044;2023-05-07T05:11:30;14.20;99.90
10129;DHT22;5104;50.720;7.044;2023-05-07T05:13:58;14.30;99.90
10129;DHT22;5104;50.720;7.044;2023-05-07T05:16:26;14.40;99.90
10129;DHT22;5104;50.720;7.044;2023-05-07T05:18:53;14.60;99.90
10129;DHT22;5104;50.720;7.044;2023-05-07T05:21:20;14.70;99.90
10129;DHT22;5104;50.720;7.044;2023-05-07T05:23:49;14.80;99.90
10129;DHT22;5104;50.720;7.044;2023-05-07T05:26:16;14.90;99.90
10129;DHT22;5104;50.720;7.044;2023-05-07T05:28:43;15.00;99.90
10129;DHT22;5104;50.720;7.044;2023-05-07T05:31:10;15.00;99.90
10129;DHT22;5104;50.720;7.044;2023-05-07T05:33:37;15.10;99.90
10129;DHT22;5104;50.720;7.044;2023-05-07T05:36:09;15.00;99.90
10129;DHT22;5104;50.720;7.044;2023-05-07T05:38:36;15.00;99.90
10129;DHT22;5104;50.720;7.044;2023-05-07T05:41:04;14.90;99.90
10129;DHT22;5104;50.720;7.044;2023-05-07T05:43:31;14.90;99.90
10129;DHT22;5104;50.720;7.044;2023-05-07T05:45:58;14.90;99.90
10129;DHT22;5104;50.720;7.044;2023-05-07T05:48:31;15.00;99.90
10129;DHT22;5104;50.720;7.044;2023-05-07T05:50:58;15.00;99.90
10129;DHT22;5104;50.720;7.044;2023-05-07T05:53:25;15.00;99.90
10129;DHT22;5104;50.720;7.044;2023-05-07T05:55:52;15.10;99.90
10129;DHT22;5104;50.720;7.044;2023-05-07T05:58:20;15.30;99.90
10129;DHT22;5104;50.720;7.044;2023-05-07T06:00:47;15.30;99.90
10129;DHT22;5104;50.720;7.044;2023-05-07T06:03:18;15.50;99.90
10129;DHT22;5104;50.720;7.044;2023-05-07T06:05:45;15.60;99.90
10129;DHT22;5104;50.720;7.044;2023-05-07T06:08:12;15.80;99.90
10129;DHT22;5104;50.720;7.044;2023-05-07T06:10:40;16.00;99.90
10129;DHT22;5104;50.720;7.044;2023-05-07T06:13:07;16.20;99.90
10129;DHT22;5104;50.720;7.044;2023-05-07T06:15:36;16.30;99.90
10129;DHT22;5104;50.720;7.044;2023-05-07T06:18:03;16.40;99.90
10129;DHT22;5104;50.720;7.044;2023-05-07T06:20:30;16.60;99.90
10129;DHT22;5104;50.720;7.044;2023-05-07T06:22:57;16.80;99.90
10129;DHT22;5104;50.720;7.044;2023-05-07T06:25:24;17.00;99.90
10129;DHT22;5104;50.720;7.044;2023-05-07T06:27:51;17.10;99.90
10129;DHT22;5104;50.720;7.044;2023-05-07T06:30:18;17.10;99.90
10129;DHT22;5104;50.720;7.044;2023-05-07T06:32:47;17.30;99.90
10129;DHT22;5104;50.720;7.044;2023-05-07T06:35:17;17.40;99.90
10129;DHT22;5104;50.720;7.044;2023-05-07T06:37:44;17.50;99.90
10129;DHT22;5104;50.720;7.044;2023-05-07T06:40:12;17.50;99.90
10129;DHT22;5104;50.720;7.044;2023-05-07T06:42:39;17.60;99.90
10129;DHT22;5104;50.720;7.044;2023-05-07T06:45:07;17.60;99.90
10129;DHT22;5104;50.720;7.044;2023-05-07T06:47:37;17.70;99.90
10129;DHT22;5104;50.720;7.044;2023-05-07T06:50:07;17.90;99.90
10129;DHT22;5104;50.720;7.044;2023-05-07T06:52:35;17.90;99.90
10129;DHT22;5104;50.720;7.044;2023-05-07T06:55:02;17.70;99.90
10129;DHT22;5104;50.720;7.044;2023-05-07T06:57:29;17.70;99.90
10129;DHT22;5104;50.720;7.044;2023-05-07T06:59:57;17.90;99.90
10129;DHT22;5104;50.720;7.044;2023-05-07T07:02:27;17.80;99.90
10129;DHT22;5104;50.720;7.044;2023-05-07T07:04:54;18.00;99.90
10129;DHT22;5104;50.720;7.044;2023-05-07T07:07:22;18.10;99.90
10129;DHT22;5104;50.720;7.044;2023-05-07T07:09:50;17.90;99.90
10129;DHT22;5104;50.720;7.044;2023-05-07T07:12:17;17.80;99.90
10129;DHT22;5104;50.720;7.044;2023-05-07T07:14:44;17.80;99.90
10129;DHT22;5104;50.720;7.044;2023-05-07T07:17:11;18.10;99.90
10129;DHT22;5104;50.720;7.044;2023-05-07T07:19:38;17.90;99.90
10129;DHT22;5104;50.720;7.044;2023-05-07T07:22:05;18.20;99.90
10129;DHT22;5104;50.720;7.044;2023-05-07T07:24:33;18.10;99.90
10129;DHT22;5104;50.720;7.044;2023-05-07T07:27:00;18.30;99.90
10129;DHT22;5104;50.720;7.044;2023-05-07T07:29:27;18.50;99.90
10129;DHT22;5104;50.720;7.044;2023-05-07T07:31:54;18.70;99.90
10129;DHT22;5104;50.720;7.044;2023-05-07T07:34:21;18.80;99.90
10129;DHT22;5104;50.720;7.044;2023-05-07T07:36:48;19.00;99.90
10129;DHT22;5104;50.720;7.044;2023-05-07T07:39:28;18.90;99.90
10129;DHT22;5104;50.720;7.044;2023-05-07T07:41:57;18.80;1.00
10129;DHT22;5104;50.720;7.044;2023-05-07T07:44:24;18.80;1.00
10129;DHT22;5104;50.720;7.044;2023-05-07T07:46:51;18.80;1.00
10129;DHT22;5104;50.720;7.044;2023-05-07T07:49:18;19.00;1.00
10129;DHT22;5104;50.720;7.044;2023-05-07T07:51:45;19.10;99.90
10129;DHT22;5104;50.720;7.044;2023-05-07T07:54:15;19.20;1.00
10129;DHT22;5104;50.720;7.044;2023-05-07T07:56:42;19.20;1.00
10129;DHT22;5104;50.720;7.044;2023-05-07T07:59:10;19.50;1.00
10129;DHT22;5104;50.720;7.044;2023-05-07T08:01:39;19.30;1.00
10129;DHT22;5104;50.720;7.044;2023-05-07T08:04:06;19.40;99.90
10129;DHT22;5104;50.720;7.044;2023-05-07T08:06:33;19.30;1.00
10129;DHT22;5104;50.720;7.044;2023-05-07T08:09:01;19.10;1.00
10129;DHT22;5104;50.720;7.044;2023-05-07T08:11:28;19.00;96.40
10129;DHT22;5104;50.720;7.044;2023-05-07T08:13:56;19.10;1.00
10129;DHT22;5104;50.720;7.044;2023-05-07T08:16:24;19.60;99.90
10129;DHT22;5104;50.720;7.044;2023-05-07T08:18:51;19.70;99.90
10129;DHT22;5104;50.720;7.044;2023-05-07T08:21:18;19.90;1.00
10129;DHT22;5104;50.720;7.044;2023-05-07T08:23:45;19.90;99.90
10129;DHT22;5104;50.720;7.044;2023-05-07T08:26:12;19.80;1.00
10129;DHT22;5104;50.720;7.044;2023-05-07T08:28:39;20.00;1.00
10129;DHT22;5104;50.720;7.044;2023-05-07T08:31:07;20.30;1.00
10129;DHT22;5104;50.720;7.044;2023-05-07T08:33:35;20.50;99.90
10129;DHT22;5104;50.720;7.044;2023-05-07T08:36:04;20.60;37.80
10129;DHT22;5104;50.720;7.044;2023-05-07T08:38:31;20.90;99.90
10129;DHT22;5104;50.720;7.044;2023-05-07T08:40:58;21.00;1.00
10129;DHT22;5104;50.720;7.044;2023-05-07T08:43:27;21.00;1.00
10129;DHT22;5104;50.720;7.044;2023-05-07T08:45:54;21.10;99.90
10129;DHT22;5104;50.720;7.044;2023-05-07T08:48:24;20.90;99.90
10129;DHT22;5104;50.720;7.044;2023-05-07T08:50:53;20.90;99.90
10129;DHT22;5104;50.720;7.044;2023-05-07T08:53:20;21.10;1.00
10129;DHT22;5104;50.720;7.044;2023-05-07T08:55:47;21.10;99.90
10129;DHT22;5104;50.720;7.044;2023-05-07T08:58:15;21.40;1.00
10129;DHT22;5104;50.720;7.044;2023-05-07T09:00:42;21.10;99.90
10129;DHT22;5104;50.720;7.044;2023-05-07T09:03:10;20.20;1.00
10129;DHT22;5104;50.720;7.044;2023-05-07T09:05:38;20.60;1.00
10129;DHT22;5104;50.720;7.044;2023-05-07T09:08:07;20.40;1.00
10129;DHT22;5104;50.720;7.044;2023-05-07T09:10:34;20.70;25.30
10129;DHT22;5104;50.720;7.044;2023-05-07T09:13:03;20.90;1.00
10129;DHT22;5104;50.720;7.044;2023-05-07T09:15:30;21.20;1.00
10129;DHT22;5104;50.720;7.044;2023-05-07T09:17:59;21.40;1.00
10129;DHT22;5104;50.720;7.044;2023-05-07T09:20:30;21.40;1.00
10129;DHT22;5104;50.720;7.044;2023-05-07T09:22:57;21.60;1.00
10129;DHT22;5104;50.720;7.044;2023-05-07T09:25:30;21.80;99.90
10129;DHT22;5104;50.720;7.044;2023-05-07T09:27:59;21.90;99.90
10129;DHT22;5104;50.720;7.044;2023-05-07T09:30:28;22.20;1.00
10129;DHT22;5104;50.720;7.044;2023-05-07T09:32:56;22.00;99.90
10129;DHT22;5104;50.720;7.044;2023-05-07T09:35:23;21.80;38.50
10129;DHT22;5104;50.720;7.044;2023-05-07T09:37:53;22.10;1.00
10129;DHT22;5104;50.720;7.044;2023-05-07T09:40:21;22.40;1.00
10129;DHT22;5104;50.720;7.044;2023-05-07T09:42:53;22.10;96.10
10129;DHT22;5104;50.720;7.044;2023-05-07T09:45:25;22.20;1.00
10129;DHT22;5104;50.720;7.044;2023-05-07T09:47:57;22.10;99.90
10129;DHT22;5104;50.720;7.044;2023-05-07T09:50:27;22.40;1.00
10129;DHT22;5104;50.720;7.044;2023-05-07T09:52:55;22.30;1.00
10129;DHT22;5104;50.720;7.044;2023-05-07T09:55:22;22.30;13.20
10129;DHT22;5104;50.720;7.044;2023-05-07T09:57:52;22.20;72.70
10129;DHT22;5104;50.720;7.044;2023-05-07T10:00:20;22.30;14.70
10129;DHT22;5104;50.720;7.044;2023-05-07T10:02:48;22.20;1.00
10129;DHT22;5104;50.720;7.044;2023-05-07T10:05:18;22.30;1.00
10129;DHT22;5104;50.720;7.044;2023-05-07T10:07:46;22.50;1.00
10129;DHT22;5104;50.720;7.044;2023-05-07T10:10:14;22.00;84.80
10129;DHT22;5104;50.720;7.044;2023-05-07T10:12:42;22.10;1.00
10129;DHT22;5104;50.720;7.044;2023-05-07T10:15:12;22.30;99.90
10129;DHT22;5104;50.720;7.044;2023-05-07T10:17:40;22.50;1.00
10129;DHT22;5104;50.720;7.044;2023-05-07T10:20:08;22.60;99.90
10129;DHT22;5104;50.720;7.044;2023-05-07T10:22:38;22.80;1.00
10129;DHT22;5104;50.720;7.044;2023-05-07T10:25:09;22.60;99.90
10129;DHT22;5104;50.720;7.044;2023-05-07T10:27:42;22.60;1.00
10129;DHT22;5104;50.720;7.044;2023-05-07T10:30:21;22.40;1.00
10129;DHT22;5104;50.720;7.044;2023-05-07T10:32:56;22.60;99.90
10129;DHT22;5104;50.720;7.044;2023-05-07T10:35:26;22.80;1.00
10129;DHT22;5104;50.720;7.044;2023-05-07T10:37:57;23.10;99.90
10129;DHT22;5104;50.720;7.044;2023-05-07T10:40:25;23.40;75.80
10129;DHT22;5104;50.720;7.044;2023-05-07T10:42:56;23.60;1.00
10129;DHT22;5104;50.720;7.044;2023-05-07T10:45:29;23.90;99.90
10129;DHT22;5104;50.720;7.044;2023-05-07T10:48:12;24.40;99.90
10129;DHT22;5104;50.720;7.044;2023-05-07T10:50:41;24.40;1.00
10129;DHT22;5104;50.720;7.044;2023-05-07T10:53:26;24.60;99.90
10129;DHT22;5104;50.720;7.044;2023-05-07T10:56:25;24.80;99.90
10129;DHT22;5104;50.720;7.044;2023-05-07T10:58:53;25.00;1.00
10129;DHT22;5104;50.720;7.044;2023-05-07T11:01:52;25.10;1.00
10129;DHT22;5104;50.720;7.044;2023-05-07T11:04:20;25.20;1.00
10129;DHT22;5104;50.720;7.044;2023-05-07T11:10:03;25.60;1.00
10129;DHT22;5104;50.720;7.044;2023-05-07T11:12:53;25.50;1.00
10129;DHT22;5104;50.720;7.044;2023-05-07T11:15:40;25.30;1.00
10129;DHT22;5104;50.720;7.044;2023-05-07T11:18:10;25.60;1.00
10129;DHT22;5104;50.720;7.044;2023-05-07T11:20:52;25.50;1.00
10129;DHT22;5104;50.720;7.044;2023-05-07T11:26:45;25.40;1.00
10129;DHT22;5104;50.720;7.044;2023-05-07T11:29:17;25.40;1.00
10129;DHT22;5104;50.720;7.044;2023-05-07T11:31:51;25.50;1.00
10129;DHT22;5104;50.720;7.044;2023-05-07T11:34:23;25.60;1.00
10129;DHT22;5104;50.720;7.044;2023-05-07T11:36:53;25.60;1.00
10129;DHT22;5104;50.720;7.044;2023-05-07T11:39:27;25.60;1.00
10129;DHT22;5104;50.720;7.044;2023-05-07T11:41:58;25.50;1.00
10129;DHT22;5104;50.720;7.044;2023-05-07T11:44:43;25.20;1.00
10129;DHT22;5104;50.720;7.044;2023-05-07T11:47:12;25.00;1.00
10129;DHT22;5104;50.720;7.044;2023-05-07T11:49:47;24.70;1.00
10129;DHT22;5104;50.720;7.044;2023-05-07T11:52:14;24.70;1.00
10129;DHT22;5104;50.720;7.044;2023-05-07T11:54:41;24.40;1.00
10129;DHT22;5104;50.720;7.044;2023-05-07T11:57:14;24.30;1.00
10129;DHT22;5104;50.720;7.044;2023-05-07T11:59:41;24.20;99.90
10129;DHT22;5104;50.720;7.044;2023-05-07T12:02:10;24.10;1.00
10129;DHT22;5104;50.720;7.044;2023-05-07T12:04:38;24.00;1.00
10129;DHT22;5104;50.720;7.044;2023-05-07T12:07:11;23.90;81.10
10129;DHT22;5104;50.720;7.044;2023-05-07T12:09:39;23.60;1.00
10129;DHT22;5104;50.720;7.044;2023-05-07T12:12:10;23.50;1.00
10129;DHT22;5104;50.720;7.044;2023-05-07T12:14:38;23.40;96.40
10129;DHT22;5104;50.720;7.044;2023-05-07T12:17:06;23.10;1.00
10129;DHT22;5104;50.720;7.044;2023-05-07T12:19:34;22.90;51.60
10129;DHT22;5104;50.720;7.044;2023-05-07T12:22:02;22.80;20.60
10129;DHT22;5104;50.720;7.044;2023-05-07T12:24:43;22.80;99.90
10129;DHT22;5104;50.720;7.044;2023-05-07T12:27:13;22.50;1.00
10129;DHT22;5104;50.720;7.044;2023-05-07T12:29:43;22.40;1.00
10129;DHT22;5104;50.720;7.044;2023-05-07T12:32:13;22.20;1.00
10129;DHT22;5104;50.720;7.044;2023-05-07T12:34:40;22.00;1.00
10129;DHT22;5104;50.720;7.044;2023-05-07T12:37:07;22.00;19.20
10129;DHT22;5104;50.720;7.044;2023-05-07T12:39:37;21.80;99.90
10129;DHT22;5104;50.720;7.044;2023-05-07T12:42:04;21.70;1.00
10129;DHT22;5104;50.720;7.044;2023-05-07T12:44:32;21.60;1.00
10129;DHT22;5104;50.720;7.044;2023-05-07T12:47:02;21.60;1.00
10129;DHT22;5104;50.720;7.044;2023-05-07T12:49:29;21.60;99.90
10129;DHT22;5104;50.720;7.044;2023-05-07T12:51:56;21.50;99.90
10129;DHT22;5104;50.720;7.044;2023-05-07T12:54:30;21.40;1.00
10129;DHT22;5104;50.720;7.044;2023-05-07T12:57:02;21.20;1.00
10129;DHT22;5104;50.720;7.044;2023-05-07T12:59:34;21.20;1.00
10129;DHT22;5104;50.720;7.044;2023-05-07T13:02:01;21.10;1.00
10129;DHT22;5104;50.720;7.044;2023-05-07T13:04:28;21.10;99.90
10129;DHT22;5104;50.720;7.044;2023-05-07T13:07:02;21.10;99.90
10129;DHT22;5104;50.720;7.044;2023-05-07T13:09:30;21.10;99.90
10129;DHT22;5104;50.720;7.044;2023-05-07T13:11:58;21.20;25.70
10129;DHT22;5104;50.720;7.044;2023-05-07T13:14:28;21.30;99.90
10129;DHT22;5104;50.720;7.044;2023-05-07T13:16:55;21.20;1.00
10129;DHT22;5104;50.720;7.044;2023-05-07T13:19:22;21.30;99.90
10129;DHT22;5104;50.720;7.044;2023-05-07T13:21:48;21.50;1.00
10129;DHT22;5104;50.720;7.044;2023-05-07T13:24:16;21.70;1.00
10129;DHT22;5104;50.720;7.044;2023-05-07T13:26:43;21.80;99.90
10129;DHT22;5104;50.720;7.044;2023-05-07T13:29:10;21.80;1.00
10129;DHT22;5104;50.720;7.044;2023-05-07T13:31:39;21.70;1.00
10129;DHT22;5104;50.720;7.044;2023-05-07T13:34:09;21.50;1.00
10129;DHT22;5104;50.720;7.044;2023-05-07T13:36:37;21.60;1.00
10129;DHT22;5104;50.720;7.044;2023-05-07T13:39:05;21.70;1.00
10129;DHT22;5104;50.720;7.044;2023-05-07T13:41:32;21.80;1.00
10129;DHT22;5104;50.720;7.044;2023-05-07T13:43:59;22.10;1.00
10129;DHT22;5104;50.720;7.044;2023-05-07T13:46:26;22.20;1.00
10129;DHT22;5104;50.720;7.044;2023-05-07T13:48:54;22.00;1.00
10129;DHT22;5104;50.720;7.044;2023-05-07T13:51:21;21.90;1.00
10129;DHT22;5104;50.720;7.044;2023-05-07T13:53:48;21.80;1.00
10129;DHT22;5104;50.720;7.044;2023-05-07T13:56:15;21.80;99.90
10129;DHT22;5104;50.720;7.044;2023-05-07T13:58:42;21.80;1.00
10129;DHT22;5104;50.720;7.044;2023-05-07T14:01:09;21.60;99.90
10129;DHT22;5104;50.720;7.044;2023-05-07T14:03:36;21.70;1.00
10129;DHT22;5104;50.720;7.044;2023-05-07T14:06:06;21.70;1.00
10129;DHT22;5104;50.720;7.044;2023-05-07T14:08:33;21.70;1.00
10129;DHT22;5104;50.720;7.044;2023-05-07T14:11:00;21.80;99.90
10129;DHT22;5104;50.720;7.044;2023-05-07T14:13:27;21.80;99.90
10129;DHT22;5104;50.720;7.044;2023-05-07T14:15:56;22.10;1.00
10129;DHT22;5104;50.720;7.044;2023-05-07T14:18:23;22.00;1.00
10129;DHT22;5104;50.720;7.044;2023-05-07T14:20:50;22.00;1.00
10129;DHT22;5104;50.720;7.044;2023-05-07T14:23:18;21.90;1.00
10129;DHT22;5104;50.720;7.044;2023-05-07T14:25:47;22.00;1.00
10129;DHT22;5104;50.720;7.044;2023-05-07T14:28:14;22.00;1.00
10129;DHT22;5104;50.720;7.044;2023-05-07T14:30:41;22.00;1.00
10129;DHT22;5104;50.720;7.044;2023-05-07T14:33:08;21.90;1.00
10129;DHT22;5104;50.720;7.044;2023-05-07T14:35:35;21.80;1.00
10129;DHT22;5104;50.720;7.044;2023-05-07T14:38:02;21.50;1.00
10129;DHT22;5104;50.720;7.044;2023-05-07T14:40:30;21.50;1.00
10129;DHT22;5104;50.720;7.044;2023-05-07T14:42:57;21.50;1.00
10129;DHT22;5104;50.720;7.044;2023-05-07T14:45:24;21.40;1.00
10129;DHT22;5104;50.720;7.044;2023-05-07T14:47:51;21.30;99.90
10129;DHT22;5104;50.720;7.044;2023-05-07T14:50:18;21.30;99.90
10129;DHT22;5104;50.720;7.044;2023-05-07T14:52:45;21.20;1.00
10129;DHT22;5104;50.720;7.044;2023-05-07T14:55:12;21.20;1.00
10129;DHT22;5104;50.720;7.044;2023-05-07T14:57:40;21.20;1.00
10129;DHT22;5104;50.720;7.044;2023-05-07T15:00:08;21.20;1.00
10129;DHT22;5104;50.720;7.044;2023-05-07T15:02:37;21.30;99.90
10129;DHT22;5104;50.720;7.044;2023-05-07T15:05:05;21.40;99.90
10129;DHT22;5104;50.720;7.044;2023-05-07T15:07:32;21.40;99.90
10129;DHT22;5104;50.720;7.044;2023-05-07T15:10:00;21.30;99.90
10129;DHT22;5104;50.720;7.044;2023-05-07T15:12:27;21.20;1.00
10129;DHT22;5104;50.720;7.044;2023-05-07T15:14:55;20.50;1.00
10129;DHT22;5104;50.720;7.044;2023-05-07T15:17:22;20.20;1.00
10129;DHT22;5104;50.720;7.044;2023-05-07T15:19:49;20.10;1.00
10129;DHT22;5104;50.720;7.044;2023-05-07T15:22:16;19.80;1.00
10129;DHT22;5104;50.720;7.044;2023-05-07T15:24:43;19.80;99.90
10129;DHT22;5104;50.720;7.044;2023-05-07T15:27:10;19.70;99.90
10129;DHT22;5104;50.720;7.044;2023-05-07T15:29:37;19.50;99.90
10129;DHT22;5104;50.720;7.044;2023-05-07T15:32:06;19.40;1.00
10129;DHT22;5104;50.720;7.044;2023-05-07T15:34:33;19.50;1.00
10129;DHT22;5104;50.720;7.044;2023-05-07T15:37:00;19.50;1.00
10129;DHT22;5104;50.720;7.044;2023-05-07T15:39:27;19.30;1.00
10129;DHT22;5104;50.720;7.044;2023-05-07T15:41:55;19.00;99.90
10129;DHT22;5104;50.720;7.044;2023-05-07T15:44:22;19.00;1.00
10129;DHT22;5104;50.720;7.044;2023-05-07T15:46:53;18.90;1.00
10129;DHT22;5104;50.720;7.044;2023-05-07T15:49:21;18.80;1.00
10129;DHT22;5104;50.720;7.044;2023-05-07T15:51:48;18.90;99.90
10129;DHT22;5104;50.720;7.044;2023-05-07T15:54:16;18.90;1.00
10129;DHT22;5104;50.720;7.044;2023-05-07T15:56:45;18.90;1.00
10129;DHT22;5104;50.720;7.044;2023-05-07T15:59:12;18.80;1.00
10129;DHT22;5104;50.720;7.044;2023-05-07T16:01:41;18.80;1.00
10129;DHT22;5104;50.720;7.044;2023-05-07T16:04:08;18.80;1.00
10129;DHT22;5104;50.720;7.044;2023-05-07T16:06:36;18.80;1.00